createdAt,value
2023-03-29T00:01:34.923Z,50.5
2023-03-29T00:06:45.250Z,50.5
2023-03-29T00:13:21.949Z,50.5
2023-03-29T00:18:52.415Z,50.5
2023-03-29T00:24:23.120Z,50.5
2023-03-29T00:29:53.577Z,50.5
2023-03-29T00:35:24.100Z,51
2023-03-29T00:40:53.567Z,51
2023-03-29T00:46:24.106Z,51
2023-03-29T00:51:54.495Z,52.5
2023-03-29T00:57:26.542Z,51.5
2023-03-29T01:02:54.650Z,51.5
2023-03-29T01:08:23.980Z,51.5
2023-03-29T01:13:54.447Z,51.5
2023-03-29T01:19:24.912Z,51.5
2023-03-29T01:24:55.489Z,51.5
2023-03-29T01:30:25.993Z,51.5
2023-03-29T01:35:56.653Z,51.5
2023-03-29T01:41:27.074Z,51.5
2023-03-29T01:46:57.555Z,51.5
2023-03-29T01:52:27.034Z,51.5
2023-03-29T01:57:57.513Z,51.5
2023-03-29T02:03:28.101Z,51.5
2023-03-29T02:08:58.545Z,52
2023-03-29T02:14:29.014Z,52
2023-03-29T02:19:59.603Z,52
2023-03-29T02:25:29.090Z,52
2023-03-29T02:30:59.793Z,52
2023-03-29T02:41:59.581Z,52
2023-03-29T02:47:30.039Z,52.5
2023-03-29T02:53:00.609Z,51
2023-03-29T02:58:31.068Z,51
2023-03-29T03:04:01.648Z,50.5
2023-03-29T03:09:32.137Z,50.5
2023-03-29T03:15:02.635Z,50.5
2023-03-29T03:20:32.221Z,50.5
2023-03-29T03:26:02.804Z,50
2023-03-29T03:31:33.378Z,50
2023-03-29T03:37:03.744Z,50
2023-03-29T03:42:33.254Z,50
2023-03-29T03:48:03.735Z,49.5
2023-03-29T03:53:34.318Z,49.5
2023-03-29T03:59:04.785Z,49.5
2023-03-29T04:04:35.283Z,49.5
2023-03-29T04:10:05.858Z,49
2023-03-29T04:15:36.361Z,49
2023-03-29T04:21:06.939Z,49
2023-03-29T04:26:37.413Z,49
2023-03-29T04:32:07.885Z,49
2023-03-29T04:37:38.498Z,49
2023-03-29T04:43:09.098Z,49
2023-03-29T04:48:39.576Z,48.5
2023-03-29T04:54:09.067Z,48.5
2023-03-29T04:59:39.521Z,48.5
2023-03-29T05:05:09.012Z,48.5
2023-03-29T05:10:39.508Z,48.5
2023-03-29T05:16:09.988Z,48.5
2023-03-29T05:21:40.569Z,48.5
2023-03-29T05:27:11.043Z,48.5
2023-03-29T05:32:41.560Z,48.5
2023-03-29T05:39:18.307Z,48.5
2023-03-29T05:44:48.760Z,48.5
2023-03-29T05:50:19.325Z,48.5
2023-03-29T05:55:49.823Z,48.5
2023-03-29T06:01:20.285Z,49
2023-03-29T06:06:50.883Z,49
2023-03-29T06:12:21.346Z,48.5
2023-03-29T06:17:51.883Z,48.5
2023-03-29T06:23:22.416Z,48.5
2023-03-29T06:28:52.909Z,48.5
2023-03-29T06:34:23.601Z,48.5
2023-03-29T06:39:54.073Z,48.5
2023-03-29T06:45:26.283Z,48.5
2023-03-29T06:50:55.182Z,48.5
2023-03-29T06:56:25.629Z,48.5
2023-03-29T07:01:56.493Z,48.5
2023-03-29T07:07:26.818Z,48.5
2023-03-29T07:12:57.270Z,48.5
2023-03-29T07:18:27.765Z,48.5
2023-03-29T07:23:58.349Z,48.5
2023-03-29T07:29:28.837Z,48.5
2023-03-29T07:34:58.325Z,48.5
2023-03-29T07:40:28.770Z,48.5
2023-03-29T07:45:59.366Z,48.5
2023-03-29T07:51:29.942Z,48.5
2023-03-29T07:57:00.487Z,48.5
2023-03-29T08:02:29.932Z,48.5
2023-03-29T08:08:00.384Z,48.5
2023-03-29T08:13:30.857Z,48.5
2023-03-29T08:19:00.336Z,48
2023-03-29T08:24:30.812Z,48
2023-03-29T08:30:01.325Z,48
2023-03-29T08:35:30.755Z,48
2023-03-29T08:41:01.445Z,48
2023-03-29T08:46:35.503Z,48
2023-03-29T08:52:02.337Z,48
2023-03-29T08:57:32.913Z,48
2023-03-29T09:03:02.639Z,48
2023-03-29T09:08:32.885Z,48
2023-03-29T09:14:03.369Z,48
2023-03-29T09:19:33.958Z,48
2023-03-29T09:25:04.496Z,48
2023-03-29T09:30:34.928Z,48
2023-03-29T09:36:05.521Z,48
2023-03-29T09:41:36.044Z,48
2023-03-29T09:47:05.545Z,48
2023-03-29T09:52:36.009Z,48
2023-03-29T09:58:06.480Z,48
2023-03-29T10:03:37.123Z,48
2023-03-29T10:09:07.575Z,48
2023-03-29T10:14:38.046Z,48
2023-03-29T10:20:10.141Z,48
2023-03-29T10:25:42.136Z,48
2023-03-29T10:31:09.884Z,48
2023-03-29T10:36:39.219Z,48
2023-03-29T10:42:09.708Z,48
2023-03-29T10:47:40.193Z,48
2023-03-29T10:53:09.656Z,48
2023-03-29T10:58:40.137Z,48
2023-03-29T11:04:09.675Z,48
2023-03-29T11:09:40.085Z,48
2023-03-29T11:15:10.542Z,48
2023-03-29T11:20:41.129Z,48
2023-03-29T11:26:11.636Z,48
2023-03-29T11:31:42.209Z,48
2023-03-29T11:37:11.606Z,48
2023-03-29T11:42:42.105Z,48
2023-03-29T11:48:11.581Z,48
2023-03-29T11:53:42.056Z,48
2023-03-29T11:59:12.527Z,48
2023-03-29T12:04:43.115Z,48
2023-03-29T12:10:13.561Z,48
2023-03-29T12:15:44.040Z,48
2023-03-29T12:21:13.528Z,48
2023-03-29T12:26:44.009Z,48
2023-03-29T12:32:14.645Z,48
2023-03-29T12:37:45.055Z,48
2023-03-29T12:43:15.564Z,48
2023-03-29T12:48:45.060Z,48
2023-03-29T12:54:15.525Z,48
2023-03-29T12:59:46.142Z,48
2023-03-29T13:05:16.636Z,48
2023-03-29T13:16:17.712Z,48
2023-03-29T13:21:48.142Z,48
2023-03-29T13:27:18.667Z,48
2023-03-29T13:32:48.139Z,48
2023-03-29T13:38:18.600Z,48
2023-03-29T13:43:49.052Z,48
2023-03-29T13:49:19.928Z,48
2023-03-29T13:54:50.179Z,48
2023-03-29T14:00:20.761Z,48
2023-03-29T14:05:51.238Z,48
2023-03-29T14:11:21.729Z,48
2023-03-29T14:16:52.340Z,48
2023-03-29T14:22:22.792Z,48
2023-03-29T14:27:53.279Z,48
2023-03-29T14:33:22.878Z,48
2023-03-29T14:38:53.353Z,48
2023-03-29T14:44:24.101Z,48
2023-03-29T14:49:54.425Z,48
2023-03-29T14:55:25.110Z,48
2023-03-29T15:00:55.468Z,48
2023-03-29T15:06:24.932Z,48
2023-03-29T15:11:55.486Z,48.5
2023-03-29T15:17:29.431Z,48.5
2023-03-29T15:22:55.424Z,48.5
2023-03-29T15:28:25.902Z,48.5
2023-03-29T15:33:56.549Z,48.5
2023-03-29T15:39:27.296Z,48.5
2023-03-29T15:44:57.437Z,48.5
2023-03-29T15:50:26.944Z,48.5
2023-03-29T15:55:57.364Z,48.5
2023-03-29T16:01:27.922Z,48.5
2023-03-29T16:06:58.447Z,48.5
2023-03-29T16:12:29.066Z,48.5
2023-03-29T16:17:59.629Z,48.5
2023-03-29T16:23:29.055Z,48.5
2023-03-29T16:28:59.514Z,48.5
2023-03-29T16:34:30.374Z,48.5
2023-03-29T16:40:00.582Z,48.5
2023-03-29T16:45:31.081Z,48
2023-03-29T16:51:01.797Z,48
2023-03-29T16:56:32.267Z,48
2023-03-29T17:02:02.861Z,48
2023-03-29T17:07:33.322Z,48
2023-03-29T17:13:03.815Z,48
2023-03-29T17:18:34.322Z,48
2023-03-29T17:24:03.776Z,48
2023-03-29T17:29:34.281Z,48
2023-03-29T17:35:04.752Z,48
2023-03-29T17:40:35.327Z,48
2023-03-29T17:46:06.033Z,48.5
2023-03-29T17:51:36.407Z,48.5
2023-03-29T17:57:06.901Z,48.5
2023-03-29T18:02:37.436Z,48.5
2023-03-29T18:08:07.939Z,48.5
2023-03-29T18:13:38.532Z,48.5
2023-03-29T18:19:08.093Z,49
2023-03-29T18:24:38.586Z,49.5
2023-03-29T18:30:08.084Z,49.5
2023-03-29T18:35:38.571Z,50
2023-03-29T18:41:09.102Z,50
2023-03-29T18:52:10.103Z,50.5
2023-03-29T18:57:40.571Z,51
2023-03-29T19:03:10.185Z,51
2023-03-29T19:08:40.541Z,51
2023-03-29T19:14:10.989Z,51
2023-03-29T19:19:40.470Z,51.5
2023-03-29T19:25:10.987Z,51.5
2023-03-29T19:30:41.565Z,51.5
2023-03-29T19:36:11.057Z,51.5
2023-03-29T19:41:42.005Z,51.5
2023-03-29T19:47:12.150Z,51.5
2023-03-29T19:52:42.660Z,52
2023-03-29T19:58:13.253Z,52
2023-03-29T20:03:43.802Z,52
2023-03-29T20:09:13.089Z,52
2023-03-29T20:14:43.568Z,52
2023-03-29T20:20:14.125Z,52
2023-03-29T20:25:44.644Z,52
2023-03-29T20:31:15.321Z,52
2023-03-29T20:36:45.796Z,52.5
2023-03-29T20:42:16.272Z,52.5
2023-03-29T20:47:46.880Z,52.5
2023-03-29T20:53:17.470Z,52.5
2023-03-29T20:58:47.933Z,53
2023-03-29T21:04:18.518Z,53
2023-03-29T21:10:55.086Z,53.5
2023-03-29T21:16:25.794Z,53.5
2023-03-29T21:21:56.164Z,54
2023-03-29T21:27:26.628Z,54
2023-03-29T21:32:57.482Z,54.5
2023-03-29T21:38:27.732Z,54.5
2023-03-29T21:43:57.195Z,54.5
2023-03-29T21:49:27.670Z,54.5
2023-03-29T21:54:58.152Z,54.5
2023-03-29T22:00:28.719Z,54.5
2023-03-29T22:05:59.232Z,54.5
2023-03-29T22:11:29.841Z,54.5
2023-03-29T22:17:00.296Z,54.5
2023-03-29T22:22:30.748Z,54.5
2023-03-29T22:28:00.249Z,54.5
2023-03-29T22:33:30.732Z,54.5
2023-03-29T22:39:01.262Z,54.5
2023-03-29T22:44:31.813Z,54.5
2023-03-29T22:50:02.366Z,54.5
2023-03-29T22:55:32.994Z,54.5
2023-03-29T23:01:03.703Z,54.5
2023-03-29T23:06:33.928Z,54.5
2023-03-29T23:12:04.525Z,54.5
2023-03-29T23:17:35.166Z,54
2023-03-29T23:23:05.522Z,54
2023-03-29T23:28:36.130Z,54
2023-03-29T23:34:06.568Z,54
2023-03-29T23:39:37.182Z,54
2023-03-29T23:45:07.743Z,54
2023-03-29T23:50:38.216Z,54
2023-03-29T23:56:08.769Z,54
